sensor_id;sensor_type;location;lat;lon;timestamp;pressure;altitude;pressure_sealevel;temperature;humidity
76132;BME280;64877;50.994;13.650;2023-03-01T00:00:11;101029.38;;;-2.78;75.71
76132;BME280;64877;50.994;13.650;2023-03-01T00:02:36;101030.25;;;-2.80;75.67
76132;BME280;64877;50.994;13.650;2023-03-01T00:05:02;101034.63;;;-2.75;75.90
76132;BME280;64877;50.994;13.650;2023-03-01T00:07:27;101034.66;;;-2.72;76.21
76132;BME280;64877;50.994;13.650;2023-03-01T00:09:53;101029.38;;;-2.73;75.53
76132;BME280;64877;50.994;13.650;2023-03-01T00:12:19;101028.50;;;-2.91;76.20
76132;BME280;64877;50.994;13.650;2023-03-01T00:14:45;101031.13;;;-2.86;76.13
76132;BME280;64877;50.994;13.650;2023-03-01T00:17:10;101030.25;;;-2.93;77.11
76132;BME280;64877;50.994;13.650;2023-03-01T00:19:35;101030.25;;;-3.02;77.19
76132;BME280;64877;50.994;13.650;2023-03-01T00:22:01;101024.06;;;-3.04;77.07
76132;BME280;64877;50.994;13.650;2023-03-01T00:24:26;101039.06;;;-3.07;77.60
76132;BME280;64877;50.994;13.650;2023-03-01T00:26:55;101028.50;;;-3.06;77.79
76132;BME280;64877;50.994;13.650;2023-03-01T00:29:23;101035.53;;;-3.14;77.60
76132;BME280;64877;50.994;13.650;2023-03-01T00:31:48;101032.03;;;-3.16;77.69
76132;BME280;64877;50.994;13.650;2023-03-01T00:34:14;101025.00;;;-3.08;77.22
76132;BME280;64877;50.994;13.650;2023-03-01T00:36:39;101028.47;;;-3.04;76.89
76132;BME280;64877;50.994;13.650;2023-03-01T00:39:09;101022.31;;;-3.09;77.60
76132;BME280;64877;50.994;13.650;2023-03-01T00:41:35;101027.63;;;-3.17;76.62
76132;BME280;64877;50.994;13.650;2023-03-01T00:44:01;101022.31;;;-3.23;77.02
76132;BME280;64877;50.994;13.650;2023-03-01T00:46:26;101013.53;;;-3.27;76.91
76132;BME280;64877;50.994;13.650;2023-03-01T00:48:53;101010.88;;;-3.24;77.58
76132;BME280;64877;50.994;13.650;2023-03-01T00:51:22;101005.59;;;-3.25;77.21
76132;BME280;64877;50.994;13.650;2023-03-01T00:53:50;101003.84;;;-3.17;77.71
76132;BME280;64877;50.994;13.650;2023-03-01T00:56:16;101001.19;;;-3.23;77.01
76132;BME280;64877;50.994;13.650;2023-03-01T00:58:42;100994.13;;;-3.29;77.28
76132;BME280;64877;50.994;13.650;2023-03-01T01:01:13;100991.53;;;-3.27;77.01
76132;BME280;64877;50.994;13.650;2023-03-01T01:06:23;100995.94;;;-3.28;77.07
76132;BME280;64877;50.994;13.650;2023-03-01T01:08:50;100998.56;;;-3.32;77.15
76132;BME280;64877;50.994;13.650;2023-03-01T01:11:16;101000.28;;;-3.50;77.69
76132;BME280;64877;50.994;13.650;2023-03-01T01:13:43;100995.88;;;-3.43;77.53
76132;BME280;64877;50.994;13.650;2023-03-01T01:16:09;100996.78;;;-3.35;77.54
76132;BME280;64877;50.994;13.650;2023-03-01T01:18:34;100995.03;;;-3.30;77.30
76132;BME280;64877;50.994;13.650;2023-03-01T01:21:07;100990.63;;;-3.42;77.78
76132;BME280;64877;50.994;13.650;2023-03-01T01:23:33;100989.75;;;-3.41;77.71
76132;BME280;64877;50.994;13.650;2023-03-01T01:28:45;100984.47;;;-3.51;77.07
76132;BME280;64877;50.994;13.650;2023-03-01T01:31:10;100981.81;;;-3.50;77.58
76132;BME280;64877;50.994;13.650;2023-03-01T01:33:36;100986.22;;;-3.49;76.94
76132;BME280;64877;50.994;13.650;2023-03-01T01:36:03;100973.88;;;-3.48;77.67
76132;BME280;64877;50.994;13.650;2023-03-01T01:38:29;100980.94;;;-3.49;76.42
76132;BME280;64877;50.994;13.650;2023-03-01T01:40:55;100975.66;;;-3.58;77.38
76132;BME280;64877;50.994;13.650;2023-03-01T01:43:27;100973.03;;;-3.58;77.89
76132;BME280;64877;50.994;13.650;2023-03-01T01:46:13;100976.53;;;-3.56;77.61
76132;BME280;64877;50.994;13.650;2023-03-01T01:48:42;100964.22;;;-3.57;77.49
76132;BME280;64877;50.994;13.650;2023-03-01T01:51:14;100962.44;;;-3.61;77.42
76132;BME280;64877;50.994;13.650;2023-03-01T01:53:42;100965.09;;;-3.58;76.88
76132;BME280;64877;50.994;13.650;2023-03-01T01:56:09;100975.63;;;-3.72;77.44
76132;BME280;64877;50.994;13.650;2023-03-01T01:58:37;100976.53;;;-3.59;76.36
76132;BME280;64877;50.994;13.650;2023-03-01T02:01:03;100974.75;;;-3.63;77.16
76132;BME280;64877;50.994;13.650;2023-03-01T02:03:31;100978.28;;;-3.55;77.04
76132;BME280;64877;50.994;13.650;2023-03-01T02:08:55;100979.16;;;-3.60;77.23
76132;BME280;64877;50.994;13.650;2023-03-01T02:11:22;100966.81;;;-3.69;77.07
76132;BME280;64877;50.994;13.650;2023-03-01T02:13:48;100973.84;;;-3.80;77.55
76132;BME280;64877;50.994;13.650;2023-03-01T02:16:15;100968.59;;;-3.74;77.81
76132;BME280;64877;50.994;13.650;2023-03-01T02:18:42;100970.34;;;-3.73;78.19
76132;BME280;64877;50.994;13.650;2023-03-01T02:21:33;100975.63;;;-3.82;77.68
76132;BME280;64877;50.994;13.650;2023-03-01T02:24:08;100973.88;;;-3.77;78.40
76132;BME280;64877;50.994;13.650;2023-03-01T02:29:05;100956.25;;;-3.92;77.40
76132;BME280;64877;50.994;13.650;2023-03-01T02:31:31;100950.94;;;-3.94;77.86
76132;BME280;64877;50.994;13.650;2023-03-01T02:34:19;100940.38;;;-4.00;77.58
76132;BME280;64877;50.994;13.650;2023-03-01T02:36:49;100937.75;;;-4.01;77.20
76132;BME280;64877;50.994;13.650;2023-03-01T02:39:26;100943.88;;;-4.18;78.40
76132;BME280;64877;50.994;13.650;2023-03-01T02:41:54;100939.50;;;-4.06;77.78
76132;BME280;64877;50.994;13.650;2023-03-01T02:44:21;100938.63;;;-3.99;77.69
76132;BME280;64877;50.994;13.650;2023-03-01T02:46:50;100944.81;;;-3.97;77.85
76132;BME280;64877;50.994;13.650;2023-03-01T02:49:36;100942.13;;;-4.08;77.24
76132;BME280;64877;50.994;13.650;2023-03-01T02:57:34;100935.13;;;-4.00;77.85
76132;BME280;64877;50.994;13.650;2023-03-01T03:00:05;100929.81;;;-4.15;77.53
76132;BME280;64877;50.994;13.650;2023-03-01T03:02:32;100929.75;;;-4.30;78.27
76132;BME280;64877;50.994;13.650;2023-03-01T03:05:10;100930.69;;;-4.18;78.32
76132;BME280;64877;50.994;13.650;2023-03-01T03:07:37;100928.94;;;-4.11;78.14
76132;BME280;64877;50.994;13.650;2023-03-01T03:10:07;100927.16;;;-4.15;77.54
76132;BME280;64877;50.994;13.650;2023-03-01T03:12:33;100913.97;;;-4.20;77.57
76132;BME280;64877;50.994;13.650;2023-03-01T03:14:58;100914.84;;;-4.27;76.85
76132;BME280;64877;50.994;13.650;2023-03-01T03:17:23;100921.03;;;-4.17;77.40
76132;BME280;64877;50.994;13.650;2023-03-01T03:19:49;100921.00;;;-4.20;77.23
76132;BME280;64877;50.994;13.650;2023-03-01T03:22:16;100916.59;;;-4.20;77.04
76132;BME280;64877;50.994;13.650;2023-03-01T03:24:41;100919.28;;;-4.06;78.01
76132;BME280;64877;50.994;13.650;2023-03-01T03:27:07;100915.75;;;-4.17;77.47
76132;BME280;64877;50.994;13.650;2023-03-01T03:29:33;100913.09;;;-4.26;78.15
76132;BME280;64877;50.994;13.650;2023-03-01T03:31:58;100917.47;;;-4.24;77.56
76132;BME280;64877;50.994;13.650;2023-03-01T03:34:24;100910.44;;;-4.32;78.17
76132;BME280;64877;50.994;13.650;2023-03-01T03:36:56;100916.63;;;-4.17;77.72
76132;BME280;64877;50.994;13.650;2023-03-01T03:39:27;100921.00;;;-4.20;77.22
76132;BME280;64877;50.994;13.650;2023-03-01T03:41:54;100916.59;;;-4.26;77.37
76132;BME280;64877;50.994;13.650;2023-03-01T03:44:20;100909.53;;;-4.30;77.37
76132;BME280;64877;50.994;13.650;2023-03-01T03:46:46;100903.41;;;-4.27;77.92
76132;BME280;64877;50.994;13.650;2023-03-01T03:49:11;100902.53;;;-4.23;78.36
76132;BME280;64877;50.994;13.650;2023-03-01T03:51:37;100912.16;;;-4.34;76.69
76132;BME280;64877;50.994;13.650;2023-03-01T03:54:02;100912.19;;;-4.30;77.10
76132;BME280;64877;50.994;13.650;2023-03-01T03:56:28;100910.41;;;-4.42;77.53
76132;BME280;64877;50.994;13.650;2023-03-01T03:58:53;100914.78;;;-4.47;78.11
76132;BME280;64877;50.994;13.650;2023-03-01T04:01:18;100914.81;;;-4.37;77.00
76132;BME280;64877;50.994;13.650;2023-03-01T04:03:44;100917.44;;;-4.37;77.76
76132;BME280;64877;50.994;13.650;2023-03-01T04:06:13;100918.28;;;-4.51;77.64
76132;BME280;64877;50.994;13.650;2023-03-01T04:08:38;100921.78;;;-4.43;78.13
76132;BME280;64877;50.994;13.650;2023-03-01T04:11:05;100924.50;;;-4.30;76.65
76132;BME280;64877;50.994;13.650;2023-03-01T04:13:50;100919.16;;;-4.43;76.15
76132;BME280;64877;50.994;13.650;2023-03-01T04:16:16;100920.06;;;-4.42;78.37
76132;BME280;64877;50.994;13.650;2023-03-01T04:18:43;100922.56;;;-4.68;76.69
76132;BME280;64877;50.994;13.650;2023-03-01T04:21:09;100920.00;;;-4.57;77.03
76132;BME280;64877;50.994;13.650;2023-03-01T04:23:35;100918.25;;;-4.54;77.42
76132;BME280;64877;50.994;13.650;2023-03-01T04:26:01;100912.97;;;-4.61;77.40
76132;BME280;64877;50.994;13.650;2023-03-01T04:28:38;100911.16;;;-4.62;77.45
76132;BME280;64877;50.994;13.650;2023-03-01T04:31:10;100906.75;;;-4.68;78.06
76132;BME280;64877;50.994;13.650;2023-03-01T04:33:42;100909.44;;;-4.59;77.31
76132;BME280;64877;50.994;13.650;2023-03-01T04:36:08;100912.06;;;-4.59;78.14
76132;BME280;64877;50.994;13.650;2023-03-01T04:38:35;100907.69;;;-4.58;78.46
76132;BME280;64877;50.994;13.650;2023-03-01T04:41:03;100921.66;;;-4.73;77.58
76132;BME280;64877;50.994;13.650;2023-03-01T04:43:29;100921.69;;;-4.70;78.22
76132;BME280;64877;50.994;13.650;2023-03-01T04:45:54;100925.22;;;-4.70;77.87
76132;BME280;64877;50.994;13.650;2023-03-01T04:48:19;100922.56;;;-4.71;77.84
76132;BME280;64877;50.994;13.650;2023-03-01T04:50:45;100927.88;;;-4.65;78.12
76132;BME280;64877;50.994;13.650;2023-03-01T04:53:10;100924.34;;;-4.67;78.50
76132;BME280;64877;50.994;13.650;2023-03-01T04:55:35;100928.72;;;-4.68;77.37
76132;BME280;64877;50.994;13.650;2023-03-01T04:58:01;100922.56;;;-4.77;77.78
76132;BME280;64877;50.994;13.650;2023-03-01T05:00:26;100919.00;;;-4.79;78.46
76132;BME280;64877;50.994;13.650;2023-03-01T05:02:54;100917.16;;;-4.93;77.72
76132;BME280;64877;50.994;13.650;2023-03-01T05:05:28;100911.09;;;-4.85;78.71
76132;BME280;64877;50.994;13.650;2023-03-01T05:07:55;100918.13;;;-4.80;78.42
76132;BME280;64877;50.994;13.650;2023-03-01T05:10:22;100919.88;;;-4.82;77.22
76132;BME280;64877;50.994;13.650;2023-03-01T05:12:47;100918.09;;;-4.92;77.54
76132;BME280;64877;50.994;13.650;2023-03-01T05:15:13;100917.22;;;-4.83;76.64
76132;BME280;64877;50.994;13.650;2023-03-01T05:17:39;100919.81;;;-4.93;77.86
76132;BME280;64877;50.994;13.650;2023-03-01T05:20:05;100914.59;;;-4.85;77.30
76132;BME280;64877;50.994;13.650;2023-03-01T05:22:36;100909.31;;;-4.85;77.67
76132;BME280;64877;50.994;13.650;2023-03-01T05:25:02;100911.06;;;-4.90;78.04
76132;BME280;64877;50.994;13.650;2023-03-01T05:27:28;100903.09;;;-4.98;77.51
76132;BME280;64877;50.994;13.650;2023-03-01T05:29:55;100899.59;;;-5.00;78.53
76132;BME280;64877;50.994;13.650;2023-03-01T05:32:20;100907.56;;;-4.84;77.79
76132;BME280;64877;50.994;13.650;2023-03-01T05:34:46;100900.53;;;-4.84;77.21
76132;BME280;64877;50.994;13.650;2023-03-01T05:37:12;100898.75;;;-4.96;77.49
76132;BME280;64877;50.994;13.650;2023-03-01T05:39:39;100897.03;;;-4.86;77.81
76132;BME280;64877;50.994;13.650;2023-03-01T05:42:05;100903.97;;;-4.99;77.50
76132;BME280;64877;50.994;13.650;2023-03-01T05:44:30;100895.28;;;-4.85;77.22
76132;BME280;64877;50.994;13.650;2023-03-01T05:46:56;100892.63;;;-4.88;77.94
76132;BME280;64877;50.994;13.650;2023-03-01T05:49:22;100890.84;;;-4.93;77.54
76132;BME280;64877;50.994;13.650;2023-03-01T05:51:52;100897.91;;;-4.82;76.84
76132;BME280;64877;50.994;13.650;2023-03-01T05:54:19;100900.50;;;-4.95;77.06
76132;BME280;64877;50.994;13.650;2023-03-01T05:56:45;100902.28;;;-4.87;77.25
76132;BME280;64877;50.994;13.650;2023-03-01T05:59:11;100899.66;;;-4.90;78.18
76132;BME280;64877;50.994;13.650;2023-03-01T06:01:37;100901.41;;;-4.89;76.84
76132;BME280;64877;50.994;13.650;2023-03-01T06:04:03;100908.34;;;-5.04;77.07
76132;BME280;64877;50.994;13.650;2023-03-01T06:06:29;100911.88;;;-5.02;76.95
76132;BME280;64877;50.994;13.650;2023-03-01T06:08:55;100908.38;;;-5.01;77.62
76132;BME280;64877;50.994;13.650;2023-03-01T06:11:21;100909.31;;;-4.91;78.41
76132;BME280;64877;50.994;13.650;2023-03-01T06:13:46;100908.44;;;-4.82;77.46
76132;BME280;64877;50.994;13.650;2023-03-01T06:16:13;100903.19;;;-4.84;78.23
76132;BME280;64877;50.994;13.650;2023-03-01T06:18:38;100903.19;;;-4.85;77.98
76132;BME280;64877;50.994;13.650;2023-03-01T06:21:04;100902.31;;;-4.84;78.32
76132;BME280;64877;50.994;13.650;2023-03-01T06:23:30;100911.09;;;-4.87;77.78
76132;BME280;64877;50.994;13.650;2023-03-01T06:25:56;100915.41;;;-4.94;77.80
76132;BME280;64877;50.994;13.650;2023-03-01T06:28:21;100909.44;;;-4.60;78.32
76132;BME280;64877;50.994;13.650;2023-03-01T06:30:47;100907.81;;;-4.26;79.34
76132;BME280;64877;50.994;13.650;2023-03-01T06:33:13;100903.47;;;-4.12;76.21
76132;BME280;64877;50.994;13.650;2023-03-01T06:35:39;100915.81;;;-3.86;76.12
76132;BME280;64877;50.994;13.650;2023-03-01T06:38:04;100917.56;;;-3.64;73.79
76132;BME280;64877;50.994;13.650;2023-03-01T06:40:31;100905.25;;;-3.47;74.03
76132;BME280;64877;50.994;13.650;2023-03-01T06:42:57;100912.28;;;-3.27;73.97
76132;BME280;64877;50.994;13.650;2023-03-01T06:45:23;100912.28;;;-3.12;72.79
76132;BME280;64877;50.994;13.650;2023-03-01T06:47:49;100912.22;;;-2.86;72.37
76132;BME280;64877;50.994;13.650;2023-03-01T06:50:15;100915.66;;;-2.69;72.55
76132;BME280;64877;50.994;13.650;2023-03-01T06:52:41;100915.59;;;-2.49;71.12
76132;BME280;64877;50.994;13.650;2023-03-01T06:55:07;100912.06;;;-2.45;72.12
76132;BME280;64877;50.994;13.650;2023-03-01T06:57:32;100911.94;;;-2.20;71.77
76132;BME280;64877;50.994;13.650;2023-03-01T06:59:58;100915.34;;;-2.00;70.98
76132;BME280;64877;50.994;13.650;2023-03-01T07:02:24;100910.72;;;-1.67;67.72
76132;BME280;64877;50.994;13.650;2023-03-01T07:04:50;100909.88;;;-1.75;68.66
76132;BME280;64877;50.994;13.650;2023-03-01T07:07:16;100913.44;;;-1.79;68.79
76132;BME280;64877;50.994;13.650;2023-03-01T07:09:43;100907.00;;;-1.43;67.36
76132;BME280;64877;50.994;13.650;2023-03-01T07:12:09;100899.91;;;-1.38;67.54
76132;BME280;64877;50.994;13.650;2023-03-01T07:14:34;100897.16;;;-1.31;67.35
76132;BME280;64877;50.994;13.650;2023-03-01T07:16:59;100894.50;;;-1.29;66.25
76132;BME280;64877;50.994;13.650;2023-03-01T07:19:25;100881.88;;;-1.02;66.53
76132;BME280;64877;50.994;13.650;2023-03-01T07:21:50;100887.16;;;-0.99;66.59
76132;BME280;64877;50.994;13.650;2023-03-01T07:24:16;100878.97;;;-0.80;64.70
76132;BME280;64877;50.994;13.650;2023-03-01T07:26:41;100884.09;;;-0.64;63.01
76132;BME280;64877;50.994;13.650;2023-03-01T07:29:07;100875.94;;;-0.47;63.08
76132;BME280;64877;50.994;13.650;2023-03-01T07:31:34;100869.38;;;-0.22;65.26
76132;BME280;64877;50.994;13.650;2023-03-01T07:34:00;100880.16;;;-0.33;64.07
76132;BME280;64877;50.994;13.650;2023-03-01T07:36:25;100872.53;;;0.06;62.56
76132;BME280;64877;50.994;13.650;2023-03-01T07:38:51;100870.69;;;0.11;62.63
76132;BME280;64877;50.994;13.650;2023-03-01T07:41:17;100877.78;;;0.09;60.94
76132;BME280;64877;50.994;13.650;2023-03-01T07:43:42;100872.94;;;0.36;61.63
76132;BME280;64877;50.994;13.650;2023-03-01T07:46:08;100872.88;;;0.39;60.60
76132;BME280;64877;50.994;13.650;2023-03-01T07:48:33;100866.00;;;0.78;60.50
76132;BME280;64877;50.994;13.650;2023-03-01T07:51:00;100860.06;;;0.64;61.23
76132;BME280;64877;50.994;13.650;2023-03-01T07:53:25;100857.94;;;0.83;61.30
76132;BME280;64877;50.994;13.650;2023-03-01T07:56:10;100849.75;;;0.95;59.98
76132;BME280;64877;50.994;13.650;2023-03-01T07:58:37;100842.13;;;1.21;58.78
76132;BME280;64877;50.994;13.650;2023-03-01T08:01:04;100851.44;;;0.99;58.85
76132;BME280;64877;50.994;13.650;2023-03-01T08:03:29;100847.41;;;1.24;60.15
76132;BME280;64877;50.994;13.650;2023-03-01T08:05:55;100838.72;;;1.57;59.52
76132;BME280;64877;50.994;13.650;2023-03-01T08:08:20;100840.00;;;1.39;60.39
76132;BME280;64877;50.994;13.650;2023-03-01T08:10:45;100833.34;;;1.98;59.54
76132;BME280;64877;50.994;13.650;2023-03-01T08:13:11;100828.34;;;1.85;58.66
76132;BME280;64877;50.994;13.650;2023-03-01T08:15:36;100822.78;;;1.94;58.71
76132;BME280;64877;50.994;13.650;2023-03-01T08:18:02;100811.16;;;2.33;58.68
76132;BME280;64877;50.994;13.650;2023-03-01T08:20:27;100816.59;;;2.65;56.23
76132;BME280;64877;50.994;13.650;2023-03-01T08:22:52;100804.88;;;2.70;57.46
76132;BME280;64877;50.994;13.650;2023-03-01T08:25:18;100798.78;;;2.98;57.53
76132;BME280;64877;50.994;13.650;2023-03-01T08:27:43;100804.97;;;2.98;55.71
76132;BME280;64877;50.994;13.650;2023-03-01T08:30:09;100802.16;;;3.04;57.18
76132;BME280;64877;50.994;13.650;2023-03-01T08:32:36;100795.63;;;3.46;56.10
76132;BME280;64877;50.994;13.650;2023-03-01T08:35:02;100795.22;;;3.58;55.93
76132;BME280;64877;50.994;13.650;2023-03-01T08:37:28;100794.88;;;3.70;54.89
76132;BME280;64877;50.994;13.650;2023-03-01T08:39:56;100797.94;;;3.27;54.32
76132;BME280;64877;50.994;13.650;2023-03-01T08:42:21;100793.69;;;3.51;54.52
76132;BME280;64877;50.994;13.650;2023-03-01T08:44:47;100803.84;;;2.76;56.41
76132;BME280;64877;50.994;13.650;2023-03-01T08:47:12;100797.13;;;2.94;56.10
76132;BME280;64877;50.994;13.650;2023-03-01T08:49:37;100803.13;;;3.02;55.90
76132;BME280;64877;50.994;13.650;2023-03-01T08:52:03;100799.81;;;2.92;56.71
76132;BME280;64877;50.994;13.650;2023-03-01T08:54:28;100795.41;;;3.22;55.51
76132;BME280;64877;50.994;13.650;2023-03-01T08:56:54;100789.94;;;3.27;56.35
76132;BME280;64877;50.994;13.650;2023-03-01T08:59:19;100776.25;;;3.39;56.40
76132;BME280;64877;50.994;13.650;2023-03-01T09:01:45;100782.53;;;3.66;56.49
76132;BME280;64877;50.994;13.650;2023-03-01T09:04:11;100794.31;;;3.29;55.95
76132;BME280;64877;50.994;13.650;2023-03-01T09:06:40;100787.06;;;3.34;55.67
76132;BME280;64877;50.994;13.650;2023-03-01T09:09:06;100787.38;;;3.24;56.72
76132;BME280;64877;50.994;13.650;2023-03-01T09:11:32;100792.94;;;3.16;57.13
76132;BME280;64877;50.994;13.650;2023-03-01T09:13:58;100786.38;;;2.97;57.51
76132;BME280;64877;50.994;13.650;2023-03-01T09:16:24;100779.81;;;3.08;57.34
76132;BME280;64877;50.994;13.650;2023-03-01T09:18:51;100776.00;;;3.17;57.20
76132;BME280;64877;50.994;13.650;2023-03-01T09:21:18;100771.97;;;3.33;59.94
76132;BME280;64877;50.994;13.650;2023-03-01T09:23:46;100765.41;;;3.14;58.64
76132;BME280;64877;50.994;13.650;2023-03-01T09:26:14;100753.28;;;3.02;56.69
76132;BME280;64877;50.994;13.650;2023-03-01T09:28:42;100760.66;;;2.94;56.47
76132;BME280;64877;50.994;13.650;2023-03-01T09:31:07;100758.19;;;2.87;57.30
76132;BME280;64877;50.994;13.650;2023-03-01T09:33:33;100755.47;;;2.88;56.65
76132;BME280;64877;50.994;13.650;2023-03-01T09:36:04;100760.91;;;2.54;57.52
76132;BME280;64877;50.994;13.650;2023-03-01T09:38:30;100762.81;;;2.49;57.91
76132;BME280;64877;50.994;13.650;2023-03-01T09:40:55;100752.91;;;2.52;58.59
76132;BME280;64877;50.994;13.650;2023-03-01T09:46:08;100756.19;;;2.64;58.06
76132;BME280;64877;50.994;13.650;2023-03-01T09:51:35;100754.25;;;2.36;58.16
76132;BME280;64877;50.994;13.650;2023-03-01T09:54:02;100762.31;;;2.33;58.20
76132;BME280;64877;50.994;13.650;2023-03-01T09:56:41;100759.56;;;2.36;58.84
76132;BME280;64877;50.994;13.650;2023-03-01T09:59:40;100759.56;;;2.36;58.96
76132;BME280;64877;50.994;13.650;2023-03-01T10:04:50;100770.78;;;2.15;59.76
76132;BME280;64877;50.994;13.650;2023-03-01T10:09:53;100763.91;;;2.06;59.76
76132;BME280;64877;50.994;13.650;2023-03-01T10:12:34;100762.31;;;2.33;59.81
76132;BME280;64877;50.994;13.650;2023-03-01T10:15:14;100760.81;;;2.23;59.61
76132;BME280;64877;50.994;13.650;2023-03-01T10:17:51;100770.94;;;2.08;60.78
76132;BME280;64877;50.994;13.650;2023-03-01T10:20:28;100774.16;;;2.21;60.33
76132;BME280;64877;50.994;13.650;2023-03-01T10:22:55;100767.97;;;2.21;60.05
76132;BME280;64877;50.994;13.650;2023-03-01T10:25:44;100762.53;;;2.25;60.05
76132;BME280;64877;50.994;13.650;2023-03-01T10:28:20;100763.97;;;2.03;61.02
76132;BME280;64877;50.994;13.650;2023-03-01T10:30:48;100750.31;;;2.17;60.48
76132;BME280;64877;50.994;13.650;2023-03-01T10:33:39;100749.31;;;2.21;60.71
76132;BME280;64877;50.994;13.650;2023-03-01T10:36:06;100749.19;;;2.25;60.05
76132;BME280;64877;50.994;13.650;2023-03-01T10:38:56;100751.22;;;2.50;60.54
76132;BME280;64877;50.994;13.650;2023-03-01T10:41:24;100746.63;;;2.55;59.78
76132;BME280;64877;50.994;13.650;2023-03-01T10:43:55;100745.47;;;2.65;59.43
76132;BME280;64877;50.994;13.650;2023-03-01T10:46:31;100744.22;;;2.46;59.23
76132;BME280;64877;50.994;13.650;2023-03-01T10:49:19;100737.16;;;2.45;58.55
76132;BME280;64877;50.994;13.650;2023-03-01T10:51:47;100737.09;;;2.46;59.05
76132;BME280;64877;50.994;13.650;2023-03-01T10:54:30;100728.50;;;2.68;59.16
76132;BME280;64877;50.994;13.650;2023-03-01T10:57:04;100728.25;;;2.77;58.67
76132;BME280;64877;50.994;13.650;2023-03-01T10:59:38;100719.72;;;2.64;58.62
76132;BME280;64877;50.994;13.650;2023-03-01T11:02:28;100718.00;;;2.62;59.38
76132;BME280;64877;50.994;13.650;2023-03-01T11:05:03;100719.22;;;2.50;59.47
76132;BME280;64877;50.994;13.650;2023-03-01T11:10:25;100717.25;;;2.56;58.64
76132;BME280;64877;50.994;13.650;2023-03-01T11:12:52;100710.88;;;2.62;58.82
76132;BME280;64877;50.994;13.650;2023-03-01T11:15:24;100711.88;;;2.58;59.08
76132;BME280;64877;50.994;13.650;2023-03-01T11:17:50;100701.75;;;2.71;59.03
76132;BME280;64877;50.994;13.650;2023-03-01T11:20:30;100702.41;;;2.79;58.21
76132;BME280;64877;50.994;13.650;2023-03-01T11:23:04;100696.19;;;2.78;58.30
76132;BME280;64877;50.994;13.650;2023-03-01T11:25:35;100702.91;;;2.92;58.66
76132;BME280;64877;50.994;13.650;2023-03-01T11:28:04;100699.31;;;2.93;58.63
76132;BME280;64877;50.994;13.650;2023-03-01T11:30:44;100695.38;;;3.06;58.17
76132;BME280;64877;50.994;13.650;2023-03-01T11:33:31;100699.44;;;3.19;57.91
76132;BME280;64877;50.994;13.650;2023-03-01T11:36:06;100693.97;;;3.24;57.28
76132;BME280;64877;50.994;13.650;2023-03-01T11:38:35;100698.50;;;3.20;56.99
76132;BME280;64877;50.994;13.650;2023-03-01T11:43:56;100703.72;;;3.25;57.40
76132;BME280;64877;50.994;13.650;2023-03-01T11:51:48;100704.19;;;3.08;57.35
76132;BME280;64877;50.994;13.650;2023-03-01T11:54:41;100705.31;;;3.30;57.80
76132;BME280;64877;50.994;13.650;2023-03-01T12:00:44;100684.69;;;3.63;55.65
76132;BME280;64877;50.994;13.650;2023-03-01T12:09:12;100664.50;;;3.81;53.56
76132;BME280;64877;50.994;13.650;2023-03-01T12:11:49;100674.16;;;3.85;53.82
76132;BME280;64877;50.994;13.650;2023-03-01T12:16:53;100661.66;;;3.86;52.73
76132;BME280;64877;50.994;13.650;2023-03-01T12:25:39;100649.19;;;3.86;51.60
76132;BME280;64877;50.994;13.650;2023-03-01T12:36:31;100616.88;;;4.19;51.56
76132;BME280;64877;50.994;13.650;2023-03-01T12:41:39;100612.06;;;4.29;49.26
76132;BME280;64877;50.994;13.650;2023-03-01T12:44:23;100608.94;;;4.16;48.59
76132;BME280;64877;50.994;13.650;2023-03-01T12:47:11;100609.41;;;4.27;49.87
76132;BME280;64877;50.994;13.650;2023-03-01T12:49:54;100595.88;;;4.32;49.81
76132;BME280;64877;50.994;13.650;2023-03-01T12:52:28;100607.34;;;4.35;49.44
76132;BME280;64877;50.994;13.650;2023-03-01T12:55:00;100611.94;;;4.32;48.88
76132;BME280;64877;50.994;13.650;2023-03-01T12:57:38;100603.47;;;4.44;49.20
76132;BME280;64877;50.994;13.650;2023-03-01T13:00:27;100603.63;;;4.39;50.37
76132;BME280;64877;50.994;13.650;2023-03-01T13:05:40;100601.91;;;4.38;50.65
76132;BME280;64877;50.994;13.650;2023-03-01T13:08:19;100609.31;;;4.30;50.72
76132;BME280;64877;50.994;13.650;2023-03-01T13:10:52;100609.31;;;4.30;51.11
76132;BME280;64877;50.994;13.650;2023-03-01T13:13:22;100605.13;;;4.23;50.90
76132;BME280;64877;50.994;13.650;2023-03-01T13:15:49;100601.22;;;4.08;50.27
76132;BME280;64877;50.994;13.650;2023-03-01T13:26:09;100595.41;;;4.21;51.24
76132;BME280;64877;50.994;13.650;2023-03-01T13:34:06;100614.66;;;4.30;50.79
76132;BME280;64877;50.994;13.650;2023-03-01T13:36:50;100602.34;;;4.26;50.92
76132;BME280;64877;50.994;13.650;2023-03-01T13:39:38;100601.38;;;4.29;51.33
76132;BME280;64877;50.994;13.650;2023-03-01T13:44:52;100595.25;;;4.25;50.49
76132;BME280;64877;50.994;13.650;2023-03-01T13:47:17;100596.66;;;4.35;52.24
76132;BME280;64877;50.994;13.650;2023-03-01T13:49:46;100582.47;;;4.33;52.88
76132;BME280;64877;50.994;13.650;2023-03-01T13:54:56;100585.84;;;4.38;52.73
76132;BME280;64877;50.994;13.650;2023-03-01T13:57:26;100585.63;;;4.45;51.57
76132;BME280;64877;50.994;13.650;2023-03-01T13:59:54;100589.44;;;4.37;51.26
76132;BME280;64877;50.994;13.650;2023-03-01T14:02:20;100580.50;;;4.38;51.82
76132;BME280;64877;50.994;13.650;2023-03-01T14:04:56;100580.34;;;4.43;51.99
76132;BME280;64877;50.994;13.650;2023-03-01T14:07:23;100586.44;;;4.23;51.54
76132;BME280;64877;50.994;13.650;2023-03-01T14:09:57;100581.63;;;4.33;50.32
76132;BME280;64877;50.994;13.650;2023-03-01T14:12:44;100576.13;;;4.36;49.58
76132;BME280;64877;50.994;13.650;2023-03-01T14:20:43;100568.03;;;4.37;50.21
76132;BME280;64877;50.994;13.650;2023-03-01T14:23:18;100565.34;;;4.39;47.64
76132;BME280;64877;50.994;13.650;2023-03-01T14:25:53;100550.16;;;4.39;47.40
76132;BME280;64877;50.994;13.650;2023-03-01T14:30:47;100550.09;;;4.41;47.64